Time;durP1;ratioP1;P1;durP2;ratioP2;P2;SDS_P1;SDS_P2;PMS_P1;PMS_P2;Temp;Humidity;BMP_temperature;BMP_pressure;BME280_temperature;BME280_humidity;BME280_pressure;Samples;Min_cycle;Max_cycle;Signal;HPM_P1;HPM_P2
2023/02/06 00:00:10;;;;;;;9.63;6.07;;;;;;;-4.70;64.96;95486.72;5098606;28;20492;-73
2023/02/06 00:02:36;;;;;;;11.48;5.68;;;;;;;-4.64;65.37;95501.00;5111968;27;20108;-73
2023/02/06 00:05:01;;;;;;;7.97;4.50;;;;;;;-4.77;65.90;95505.38;5110362;28;20492;-73
2023/02/06 00:07:27;;;;;;;9.15;4.95;;;;;;;-4.71;64.64;95505.31;5113052;27;20447;-73
2023/02/06 00:09:53;;;;;;;11.48;5.93;;;;;;;-4.82;65.43;95497.84;5093472;28;20023;-73
2023/02/06 00:12:18;;;;;;;9.70;5.25;;;;;;;-4.78;65.47;95508.78;5110225;28;20413;-73
2023/02/06 00:14:44;;;;;;;9.63;5.07;;;;;;;-4.67;65.66;95517.09;5110240;28;20084;-73
2023/02/06 00:17:09;;;;;;;11.70;5.75;;;;;;;-4.86;65.88;95498.75;5111540;28;20040;-73
2023/02/06 00:19:36;;;;;;;10.20;5.00;;;;;;;-4.67;65.08;95512.03;5113521;28;20028;-73
2023/02/06 00:22:02;;;;;;;10.15;5.63;;;;;;;-4.79;64.95;95517.22;5110254;28;20035;-73
2023/02/06 00:24:27;;;;;;;11.35;6.63;;;;;;;-4.84;65.31;95524.91;5115037;28;20030;-73
2023/02/06 00:26:53;;;;;;;9.77;5.28;;;;;;;-4.81;65.63;95517.28;5132076;27;20143;-73
2023/02/06 00:29:18;;;;;;;9.18;5.50;;;;;;;-4.88;66.21;95518.19;5096549;28;20023;-73
2023/02/06 00:31:44;;;;;;;9.30;5.45;;;;;;;-4.87;66.64;95521.59;5091764;28;20516;-73
2023/02/06 00:34:09;;;;;;;9.00;5.35;;;;;;;-4.79;65.65;95518.09;5111308;28;20516;-73
2023/02/06 00:36:35;;;;;;;7.82;4.88;;;;;;;-4.74;65.11;95507.88;5111344;28;20040;-73
2023/02/06 00:39:00;;;;;;;9.98;5.32;;;;;;;-4.72;65.64;95521.38;5109825;28;20028;-73
2023/02/06 00:41:26;;;;;;;9.80;6.00;;;;;;;-4.80;66.07;95525.72;5111402;28;20043;-73
2023/02/06 00:43:51;;;;;;;9.23;5.53;;;;;;;-4.87;66.23;95530.03;5095826;28;20019;-73
2023/02/06 00:46:16;;;;;;;8.05;5.10;;;;;;;-4.90;65.82;95511.44;5116209;27;20031;-73
2023/02/06 00:48:42;;;;;;;8.30;4.93;;;;;;;-4.89;66.09;95520.75;5135046;27;20056;-73
2023/02/06 00:51:07;;;;;;;9.90;5.15;;;;;;;-4.87;66.35;95535.09;5117520;27;20096;-73
2023/02/06 00:53:33;;;;;;;6.97;4.32;;;;;;;-4.79;66.18;95527.38;5135708;27;20019;-72
2023/02/06 00:55:58;;;;;;;9.35;4.88;;;;;;;-4.89;66.15;95531.72;5118211;27;20092;-73
2023/02/06 00:58:24;;;;;;;8.63;4.90;;;;;;;-5.20;67.16;95536.28;5115110;28;20488;-73
2023/02/06 01:00:51;;;;;;;9.13;4.72;;;;;;;-5.08;66.48;95510.81;5115065;27;20519;-73
2023/02/06 01:03:16;;;;;;;9.82;5.28;;;;;;;-4.98;67.20;95531.84;5125499;27;20027;-73
2023/02/06 01:05:42;;;;;;;8.98;4.60;;;;;;;-5.12;67.06;95514.25;5113957;28;20042;-73
2023/02/06 01:08:07;;;;;;;9.85;6.20;;;;;;;-5.10;67.04;95542.94;5117265;27;20031;-73
2023/02/06 01:10:32;;;;;;;7.55;4.90;;;;;;;-4.98;66.76;95526.78;5131828;27;20035;-73
2023/02/06 01:12:58;;;;;;;7.30;5.03;;;;;;;-5.18;66.65;95519.41;5106863;27;20015;-73
2023/02/06 01:15:23;;;;;;;8.35;5.07;;;;;;;-4.96;66.65;95552.91;5134054;27;20031;-73
2023/02/06 01:17:49;;;;;;;9.43;5.82;;;;;;;-5.05;67.37;95556.38;5117502;27;20023;-73
2023/02/06 01:20:14;;;;;;;8.85;5.20;;;;;;;-5.03;67.58;95562.28;5113488;28;20027;-73
2023/02/06 01:22:40;;;;;;;9.57;5.07;;;;;;;-5.00;68.07;95556.34;5113516;28;20084;-73
2023/02/06 01:25:05;;;;;;;7.25;4.70;;;;;;;-5.12;67.36;95543.81;5113373;28;20023;-74
2023/02/06 01:27:31;;;;;;;6.93;4.40;;;;;;;-5.00;67.11;95553.81;5096557;28;20043;-73
2023/02/06 01:29:56;;;;;;;6.38;4.40;;;;;;;-5.04;67.00;95555.56;5113353;28;20094;-73
2023/02/06 01:32:22;;;;;;;8.48;5.20;;;;;;;-5.16;67.92;95561.56;5125667;27;20565;-73
2023/02/06 01:34:47;;;;;;;10.88;4.90;;;;;;;-5.10;68.06;95553.06;5134651;27;20466;-73
2023/02/06 01:37:13;;;;;;;8.00;4.43;;;;;;;-4.87;67.23;95562.16;5133960;27;20032;-73
2023/02/06 01:39:38;;;;;;;8.43;4.70;;;;;;;-5.04;67.65;95532.75;5113695;27;20046;-73
2023/02/06 01:42:04;;;;;;;9.32;5.50;;;;;;;-5.04;67.64;95554.69;5114487;28;20043;-73
2023/02/06 01:44:30;;;;;;;8.25;5.38;;;;;;;-5.10;67.33;95564.91;5113150;28;20189;-74
2023/02/06 01:46:55;;;;;;;9.98;5.43;;;;;;;-5.02;67.38;95566.50;5122261;27;20039;-73
2023/02/06 01:49:23;;;;;;;12.48;6.25;;;;;;;-4.99;67.29;95579.13;5101439;28;20027;-73
2023/02/06 01:52:13;;;;;;;9.90;5.65;;;;;;;-5.14;67.90;95584.38;5127152;27;20179;-73
2023/02/06 01:54:38;;;;;;;9.27;5.65;;;;;;;-5.17;67.48;95564.13;5112166;27;20035;-73
2023/02/06 01:57:05;;;;;;;10.52;5.70;;;;;;;-5.21;68.56;95580.19;5095864;28;20074;-73
2023/02/06 01:59:31;;;;;;;9.35;4.50;;;;;;;-4.99;68.16;95580.84;5078867;28;20413;-73
2023/02/06 02:01:56;;;;;;;7.93;4.80;;;;;;;-4.97;67.51;95567.28;5098302;28;20031;-73
2023/02/06 02:04:22;;;;;;;8.88;4.45;;;;;;;-5.00;66.76;95569.88;5112608;28;20031;-73
2023/02/06 02:07:14;;;;;;;10.27;5.38;;;;;;;-5.09;66.53;95574.19;5129590;27;20027;-73
2023/02/06 02:09:39;;;;;;;13.48;5.97;;;;;;;-5.17;67.10;95576.81;5107766;27;20092;-73
2023/02/06 02:12:05;;;;;;;8.50;5.07;;;;;;;-5.05;66.58;95576.66;5111391;28;20035;-73
2023/02/06 02:14:30;;;;;;;12.27;7.05;;;;;;;-5.19;66.74;95560.75;5095090;28;20519;-73
2023/02/06 02:17:05;;;;;;;8.75;5.93;;;;;;;-5.23;66.54;95576.88;5097113;27;20038;-73
2023/02/06 02:20:07;;;;;;;9.23;5.78;;;;;;;-5.21;67.43;95585.25;5113525;28;20412;-73
2023/02/06 02:22:38;;;;;;;13.90;6.68;;;;;;;-5.27;66.36;95580.25;5113743;28;20046;-72
2023/02/06 02:25:32;;;;;;;15.48;6.55;;;;;;;-5.16;65.95;95583.53;5116543;27;20477;-73
2023/02/06 02:28:10;;;;;;;12.20;6.25;;;;;;;-5.03;66.30;95589.34;5132647;27;20058;-73
2023/02/06 02:30:46;;;;;;;10.57;5.38;;;;;;;-4.91;65.96;95588.38;5132575;27;20019;-73
2023/02/06 02:33:37;;;;;;;12.57;6.55;;;;;;;-4.95;65.62;95600.25;5132025;27;20127;-73
2023/02/06 02:36:17;;;;;;;16.17;7.05;;;;;;;-5.05;65.35;95604.53;5122240;27;20035;-73
2023/02/06 02:38:56;;;;;;;13.70;7.43;;;;;;;-5.04;64.94;95593.56;5111918;28;20077;-73
2023/02/06 02:41:41;;;;;;;11.27;7.07;;;;;;;-5.04;63.38;95608.78;5095364;28;20038;-73
2023/02/06 02:44:11;;;;;;;13.50;8.88;;;;;;;-5.19;63.91;95586.94;5112015;28;20041;-73
2023/02/06 02:46:41;;;;;;;10.20;5.80;;;;;;;-4.87;62.19;95601.00;5095178;28;20036;-73
2023/02/06 02:49:12;;;;;;;9.50;5.32;;;;;;;-4.98;62.15;95597.75;5095139;28;20059;-73
2023/02/06 02:51:37;;;;;;;10.85;6.35;;;;;;;-5.22;62.03;95573.47;5095045;28;20519;-73
2023/02/06 02:54:02;;;;;;;9.57;5.68;;;;;;;-5.03;61.33;95587.63;5094751;28;20035;-73
2023/02/06 02:56:28;;;;;;;9.40;5.60;;;;;;;-5.05;61.28;95601.16;5125558;27;20034;-73
2023/02/06 02:58:57;;;;;;;9.23;5.25;;;;;;;-5.03;61.00;95612.97;5098146;27;20035;-72
2023/02/06 03:01:30;;;;;;;10.68;6.00;;;;;;;-5.23;61.35;95612.34;5113153;27;20114;-73
2023/02/06 03:03:56;;;;;;;9.05;5.32;;;;;;;-5.35;62.04;95618.31;5094406;28;20401;-73
2023/02/06 03:06:34;;;;;;;8.30;5.32;;;;;;;-5.29;60.93;95618.28;5110589;28;20032;-73
2023/02/06 03:09:02;;;;;;;8.40;4.53;;;;;;;-5.28;60.70;95619.13;5112747;28;20051;-73
2023/02/06 03:11:28;;;;;;;7.32;4.70;;;;;;;-5.36;62.08;95614.13;5113618;27;20027;-73
2023/02/06 03:14:28;;;;;;;8.02;4.70;;;;;;;-5.23;62.68;95617.41;5094583;28;20525;-73
2023/02/06 03:16:55;;;;;;;7.53;4.40;;;;;;;-5.35;63.05;95599.75;5097774;28;20035;-73
2023/02/06 03:19:24;;;;;;;11.65;7.15;;;;;;;-5.34;63.08;95604.81;5093659;28;20028;-73
2023/02/06 03:21:49;;;;;;;14.52;8.95;;;;;;;-5.20;62.82;95617.38;5094148;28;20520;-73
2023/02/06 03:24:25;;;;;;;14.60;7.63;;;;;;;-5.32;63.02;95620.00;5113400;27;20028;-73
2023/02/06 03:26:53;;;;;;;15.10;9.07;;;;;;;-5.31;63.04;95603.97;5094109;28;20031;-73
2023/02/06 03:29:18;;;;;;;12.43;6.93;;;;;;;-5.55;63.08;95583.03;5110937;28;20409;-73
2023/02/06 03:31:50;;;;;;;12.70;8.15;;;;;;;-5.39;61.54;95620.03;5122684;27;20055;-73
2023/02/06 03:34:24;;;;;;;15.82;9.15;;;;;;;-5.21;61.18;95626.66;5131684;27;20027;-73
2023/02/06 03:36:50;;;;;;;43.05;14.77;;;;;;;-5.19;61.11;95629.16;5129763;27;20031;-73
2023/02/06 03:39:16;;;;;;;20.33;9.20;;;;;;;-5.28;60.90;95614.06;5114580;27;20034;-73
2023/02/06 03:41:41;;;;;;;32.50;11.13;;;;;;;-5.17;60.41;95622.41;5094191;27;20036;-73
2023/02/06 03:44:09;;;;;;;45.53;13.18;;;;;;;-5.30;61.10;95613.22;5093734;28;20024;-73
2023/02/06 03:46:35;;;;;;;24.65;9.90;;;;;;;-5.45;61.84;95621.81;5077211;28;20042;-73
2023/02/06 03:49:01;;;;;;;22.30;8.93;;;;;;;-5.39;62.48;95607.38;5093808;28;20102;-74
2023/02/06 03:51:34;;;;;;;24.05;9.38;;;;;;;-5.29;62.29;95612.34;5083863;28;20523;-73
2023/02/06 03:54:00;;;;;;;22.45;8.73;;;;;;;-5.17;62.19;95623.25;5093831;28;20024;-73
2023/02/06 03:56:38;;;;;;;28.35;10.25;;;;;;;-5.45;61.98;95576.22;5094072;27;20081;-73
2023/02/06 03:59:04;;;;;;;23.58;9.32;;;;;;;-5.27;63.14;95606.44;5093792;28;20501;-73
2023/02/06 04:01:29;;;;;;;19.65;7.88;;;;;;;-5.17;61.88;95613.09;5093697;28;20035;-73
2023/02/06 04:03:55;;;;;;;20.27;7.30;;;;;;;-5.08;62.79;95622.31;5127446;27;20515;-73
2023/02/06 04:06:21;;;;;;;13.65;6.45;;;;;;;-5.18;62.38;95626.63;5127442;27;20038;-73
2023/02/06 04:08:46;;;;;;;8.18;5.25;;;;;;;-5.23;61.59;95630.06;5127382;27;20031;-73
2023/02/06 04:11:12;;;;;;;10.35;5.85;;;;;;;-5.36;62.44;95631.84;5111516;28;20039;-73
2023/02/06 04:13:37;;;;;;;9.73;5.65;;;;;;;-5.25;62.49;95631.75;5118983;27;20525;-73
2023/02/06 04:16:03;;;;;;;9.98;5.72;;;;;;;-5.30;62.37;95610.69;5129296;27;20377;-73
2023/02/06 04:18:28;;;;;;;10.40;5.32;;;;;;;-5.28;62.15;95622.50;5111565;28;20023;-72
2023/02/06 04:20:54;;;;;;;8.32;4.88;;;;;;;-5.26;62.49;95640.22;5118055;27;20122;-73
2023/02/06 04:23:19;;;;;;;9.00;5.63;;;;;;;-5.31;62.78;95632.66;5131902;27;20023;-73
2023/02/06 04:25:45;;;;;;;11.23;5.53;;;;;;;-5.39;62.80;95626.81;5131888;27;20031;-73
2023/02/06 04:28:11;;;;;;;9.18;4.55;;;;;;;-5.37;62.59;95635.25;5130653;28;20031;-73
2023/02/06 04:30:36;;;;;;;10.50;4.70;;;;;;;-5.37;63.23;95639.47;5128346;28;20030;-73
2023/02/06 04:33:01;;;;;;;8.63;5.57;;;;;;;-5.49;63.34;95642.91;5126918;28;20047;-73
2023/02/06 04:35:27;;;;;;;13.57;8.93;;;;;;;-5.57;64.22;95632.00;5131796;27;20023;-73
2023/02/06 04:37:53;;;;;;;10.95;5.03;;;;;;;-5.55;62.03;95640.44;5130585;28;20480;-73
2023/02/06 04:40:18;;;;;;;8.90;4.95;;;;;;;-5.58;63.61;95638.75;5118055;27;20030;-73
2023/02/06 04:42:44;;;;;;;6.82;4.57;;;;;;;-5.64;60.47;95628.69;5123865;28;20035;-73
2023/02/06 04:45:09;;;;;;;8.27;4.65;;;;;;;-5.84;60.73;95631.34;5129754;28;20020;-73
2023/02/06 04:47:35;;;;;;;9.82;5.22;;;;;;;-5.71;62.59;95642.22;5113673;28;20035;-73
2023/02/06 04:50:00;;;;;;;6.18;4.03;;;;;;;-5.85;63.63;95629.66;5109751;28;20413;-73
2023/02/06 04:52:25;;;;;;;6.97;4.65;;;;;;;-5.80;63.74;95639.75;5093041;28;20040;-73
2023/02/06 04:54:51;;;;;;;9.18;4.97;;;;;;;-5.80;63.98;95642.28;5111255;28;20036;-73
2023/02/06 04:57:16;;;;;;;7.53;4.60;;;;;;;-5.90;63.27;95624.66;5117951;28;20485;-73
2023/02/06 04:59:42;;;;;;;12.38;6.03;;;;;;;-5.78;63.55;95638.06;5125700;27;20443;-73
2023/02/06 05:02:07;;;;;;;14.23;5.55;;;;;;;-5.79;63.17;95637.22;5094021;28;20038;-73
2023/02/06 05:04:33;;;;;;;12.27;5.95;;;;;;;-5.84;63.89;95644.84;5111000;28;20035;-73
2023/02/06 05:06:58;;;;;;;20.10;7.88;;;;;;;-5.92;62.59;95645.75;5111283;28;20093;-73
2023/02/06 05:09:23;;;;;;;20.50;9.52;;;;;;;-5.97;62.00;95638.19;5109790;28;20032;-73
2023/02/06 05:11:49;;;;;;;26.30;9.00;;;;;;;-6.05;62.09;95639.94;5112077;28;20188;-73
2023/02/06 05:14:14;;;;;;;26.25;9.38;;;;;;;-6.14;61.72;95640.81;5092730;28;20019;-73
2023/02/06 05:16:40;;;;;;;28.75;9.77;;;;;;;-6.29;61.21;95651.03;5117366;28;20092;-73
2023/02/06 05:19:05;;;;;;;19.08;7.75;;;;;;;-6.53;61.76;95660.38;5110831;28;20088;-73
2023/02/06 05:21:30;;;;;;;19.92;8.55;;;;;;;-6.75;63.20;95648.63;5110636;28;20047;-73
2023/02/06 05:23:56;;;;;;;18.98;8.02;;;;;;;-6.87;63.63;95662.16;5092554;28;20035;-73
2023/02/06 05:26:21;;;;;;;20.70;9.23;;;;;;;-6.84;63.69;95669.72;5111024;28;20113;-73
2023/02/06 05:28:47;;;;;;;27.58;13.85;;;;;;;-6.80;64.12;95663.84;5126630;27;20038;-73
2023/02/06 05:31:18;;;;;;;29.48;15.35;;;;;;;-6.84;65.24;95672.25;5115888;27;20051;-73
2023/02/06 05:33:45;;;;;;;26.92;13.38;;;;;;;-6.76;64.89;95685.72;5135056;27;20023;-73
2023/02/06 05:36:10;;;;;;;16.65;8.23;;;;;;;-6.77;63.36;95685.69;5131869;27;20084;-72
2023/02/06 05:38:36;;;;;;;34.33;12.70;;;;;;;-6.84;63.47;95689.94;5133603;27;20446;-73
2023/02/06 05:41:02;;;;;;;34.53;13.30;;;;;;;-6.81;64.55;95697.50;5133460;27;20027;-73
2023/02/06 05:43:27;;;;;;;39.90;14.75;;;;;;;-6.77;64.76;95696.69;5131078;27;20119;-74
2023/02/06 05:45:53;;;;;;;42.22;14.13;;;;;;;-6.72;64.19;95694.13;5130887;27;20031;-73
2023/02/06 05:48:18;;;;;;;39.03;14.32;;;;;;;-6.63;64.82;95705.91;5101118;28;20084;-74
2023/02/06 05:50:43;;;;;;;50.72;18.65;;;;;;;-6.60;64.28;95714.34;5097213;28;20043;-74
2023/02/06 05:53:09;;;;;;;36.78;15.75;;;;;;;-6.53;64.84;95717.69;5128741;27;20042;-73
2023/02/06 05:55:34;;;;;;;32.38;14.63;;;;;;;-6.47;65.59;95707.53;5134589;27;20027;-73
2023/02/06 05:58:00;;;;;;;32.38;15.38;;;;;;;-6.36;65.23;95703.28;5112774;27;20031;-73
2023/02/06 06:00:25;;;;;;;29.48;14.48;;;;;;;-6.31;65.41;95706.66;5115481;27;20023;-74
2023/02/06 06:02:51;;;;;;;23.20;11.48;;;;;;;-6.37;64.44;95696.56;5099012;28;20143;-74
2023/02/06 06:05:16;;;;;;;27.73;12.23;;;;;;;-6.25;64.09;95717.59;5125362;27;20046;-74
2023/02/06 06:07:42;;;;;;;26.58;12.23;;;;;;;-5.97;63.37;95708.22;5118458;27;20053;-73
2023/02/06 06:10:07;;;;;;;25.17;12.77;;;;;;;-5.92;63.08;95709.84;5130019;27;20031;-74
2023/02/06 06:12:33;;;;;;;30.55;15.73;;;;;;;-5.87;63.02;95699.72;5118665;27;20036;-74
2023/02/06 06:14:58;;;;;;;22.80;12.75;;;;;;;-5.77;61.92;95721.56;5125383;27;20058;-73
2023/02/06 06:17:24;;;;;;;27.77;12.70;;;;;;;-5.65;61.50;95708.03;5122071;27;20046;-74
2023/02/06 06:19:49;;;;;;;23.05;11.95;;;;;;;-5.63;60.70;95711.38;5106855;28;20035;-74
2023/02/06 06:22:15;;;;;;;17.20;9.60;;;;;;;-5.58;60.91;95704.59;5123101;27;20047;-73
2023/02/06 06:24:40;;;;;;;13.85;7.30;;;;;;;-5.44;60.54;95710.41;5132342;27;20099;-73
2023/02/06 06:27:09;;;;;;;10.52;6.07;;;;;;;-5.25;59.34;95710.28;5118019;27;20042;-74
2023/02/06 06:29:35;;;;;;;12.75;6.65;;;;;;;-5.32;59.12;95719.66;5112916;27;20065;-74
2023/02/06 06:32:00;;;;;;;14.90;7.28;;;;;;;-5.18;59.09;95711.94;5081431;27;20082;-74
2023/02/06 06:34:26;;;;;;;10.80;6.57;;;;;;;-5.11;58.73;95721.16;5129240;27;20095;-74
2023/02/06 06:36:51;;;;;;;19.70;9.55;;;;;;;-5.00;58.50;95732.06;5125024;27;20038;-73
2023/02/06 06:39:17;;;;;;;27.70;10.63;;;;;;;-4.98;59.20;95725.28;5130307;27;20027;-73
2023/02/06 06:41:42;;;;;;;18.27;8.60;;;;;;;-4.79;58.03;95732.72;5124440;27;20404;-73
2023/02/06 06:44:08;;;;;;;8.95;5.80;;;;;;;-4.76;56.90;95730.19;5124811;27;20031;-74
2023/02/06 06:46:33;;;;;;;12.95;8.20;;;;;;;-5.02;57.59;95733.75;5129795;27;20019;-74
2023/02/06 06:48:59;;;;;;;17.00;8.50;;;;;;;-4.90;57.89;95737.03;5130308;27;20023;-73
2023/02/06 06:51:28;;;;;;;16.13;8.98;;;;;;;-4.81;58.38;95739.53;5120253;27;20485;-74
2023/02/06 06:53:53;;;;;;;17.15;7.30;;;;;;;-4.60;56.79;95741.84;5122069;27;20084;-74
2023/02/06 06:56:19;;;;;;;12.98;7.10;;;;;;;-4.47;55.76;95744.28;5129789;27;20028;-74
2023/02/06 06:58:44;;;;;;;15.75;7.85;;;;;;;-4.55;56.40;95740.13;5130475;27;20661;-74
2023/02/06 07:01:10;;;;;;;11.85;7.18;;;;;;;-4.44;57.34;95731.56;5129746;27;20027;-73
2023/02/06 07:03:35;;;;;;;13.23;8.07;;;;;;;-4.13;55.92;95749.84;5112832;27;20023;-74
2023/02/06 07:06:01;;;;;;;11.50;7.78;;;;;;;-3.87;54.94;95747.03;5115863;27;20461;-74
2023/02/06 07:08:28;;;;;;;11.85;7.28;;;;;;;-3.99;54.47;95744.63;5109865;27;20046;-73
2023/02/06 07:11:00;;;;;;;13.32;7.95;;;;;;;-3.97;54.01;95742.91;5111488;27;20042;-73
2023/02/06 07:13:25;;;;;;;16.63;8.32;;;;;;;-3.68;54.40;95743.38;5096322;27;20621;-74
2023/02/06 07:15:51;;;;;;;20.65;10.48;;;;;;;-3.49;53.74;95745.69;5122990;27;20035;-74
2023/02/06 07:18:16;;;;;;;20.50;10.50;;;;;;;-3.31;51.93;95750.53;5120797;27;20038;-74
2023/02/06 07:20:42;;;;;;;22.48;11.18;;;;;;;-3.29;51.85;95740.34;5116007;27;20034;-74
2023/02/06 07:23:07;;;;;;;19.95;8.98;;;;;;;-3.04;51.17;95753.53;5107627;27;20484;-74
2023/02/06 07:25:33;;;;;;;14.40;8.18;;;;;;;-2.92;49.88;95761.00;5125135;27;20523;-74
2023/02/06 07:27:58;;;;;;;11.90;6.45;;;;;;;-2.97;50.04;95760.22;5119900;27;20507;-74
2023/02/06 07:30:23;;;;;;;15.73;7.97;;;;;;;-2.81;49.84;95745.56;5118971;27;20026;-74
2023/02/06 07:32:49;;;;;;;22.77;13.15;;;;;;;-2.30;48.48;95758.28;5101543;27;20055;-74
2023/02/06 07:35:14;;;;;;;11.90;6.72;;;;;;;-2.51;48.33;95762.00;5120005;27;20027;-74
2023/02/06 07:37:40;;;;;;;11.25;7.47;;;;;;;-2.52;48.45;95752.72;5112211;27;20092;-74
2023/02/06 07:40:06;;;;;;;14.48;8.68;;;;;;;-2.19;47.73;95773.38;5114203;27;20027;-74
2023/02/06 07:42:32;;;;;;;14.15;7.78;;;;;;;-1.94;47.53;95771.22;5119744;27;20568;-74
2023/02/06 07:44:58;;;;;;;14.25;8.90;;;;;;;-2.23;48.06;95762.38;5120795;27;20015;-74
2023/02/06 07:47:24;;;;;;;13.35;7.75;;;;;;;-0.18;43.96;95767.28;5114517;27;20062;-74
2023/02/06 07:49:49;;;;;;;11.02;7.75;;;;;;;0.16;42.99;95767.22;5103902;27;20106;-75
2023/02/06 07:52:15;;;;;;;10.07;7.03;;;;;;;0.53;42.50;95762.81;5121942;27;20035;-75
2023/02/06 07:54:40;;;;;;;12.05;6.78;;;;;;;1.92;39.55;95760.19;5122067;27;20027;-75
2023/02/06 07:57:05;;;;;;;8.38;6.10;;;;;;;1.62;38.99;95734.72;5117371;27;20090;-75
2023/02/06 07:59:31;;;;;;;11.77;7.05;;;;;;;1.23;40.60;95763.28;5115003;27;20023;-75
2023/02/06 08:01:57;;;;;;;11.73;7.50;;;;;;;2.97;37.26;95762.44;5118448;27;20031;-75
2023/02/06 08:04:22;;;;;;;15.55;10.30;;;;;;;2.87;36.70;95773.06;5117200;27;20019;-75
2023/02/06 08:06:47;;;;;;;15.75;9.90;;;;;;;1.34;38.50;95774.03;5101644;27;20124;-75
2023/02/06 08:09:15;;;;;;;20.20;13.75;;;;;;;3.35;36.82;95759.22;5120927;27;20076;-75
2023/02/06 08:11:41;;;;;;;13.20;8.23;;;;;;;2.85;35.24;95764.56;5118019;27;20476;-75
2023/02/06 08:14:06;;;;;;;10.30;7.65;;;;;;;3.28;35.26;95759.50;5104688;28;20129;-75
2023/02/06 08:16:32;;;;;;;10.50;7.50;;;;;;;2.81;35.70;95764.72;5100088;28;20027;-75
2023/02/06 08:18:57;;;;;;;14.43;9.18;;;;;;;2.04;35.57;95767.47;5117362;27;20019;-75
2023/02/06 08:21:23;;;;;;;14.85;9.30;;;;;;;1.18;36.51;95757.47;5118395;27;20038;-75
2023/02/06 08:23:53;;;;;;;16.67;10.68;;;;;;;0.82;38.23;95761.97;5104035;28;20046;-74
2023/02/06 08:26:20;;;;;;;14.70;10.18;;;;;;;0.12;40.17;95780.97;5105022;28;20130;-74
2023/02/06 08:28:46;;;;;;;15.18;9.77;;;;;;;-0.24;41.10;95780.22;5116319;27;20041;-75
2023/02/06 08:31:20;;;;;;;8.68;6.00;;;;;;;-1.17;42.28;95780.66;5118326;27;20154;-74
2023/02/06 08:33:45;;;;;;;22.67;12.25;;;;;;;-2.65;44.79;95786.84;5102556;28;20035;-74
2023/02/06 08:36:11;;;;;;;188.93;85.72;;;;;;;-2.67;46.53;95796.19;5119333;28;20035;-74
2023/02/06 08:38:37;;;;;;;11.80;6.70;;;;;;;-3.42;48.37;95796.41;5101471;28;20442;-74
2023/02/06 08:41:03;;;;;;;30.63;15.73;;;;;;;-3.33;48.40;95792.09;5107301;28;20033;-74
2023/02/06 08:43:28;;;;;;;16.52;8.02;;;;;;;-3.17;48.14;95794.41;5116304;28;20563;-74
2023/02/06 08:45:58;;;;;;;22.17;12.13;;;;;;;-3.62;48.91;95806.84;5090359;28;20411;-74
2023/02/06 08:48:24;;;;;;;21.73;11.27;;;;;;;-3.68;50.06;95801.81;5111808;28;20024;-74
2023/02/06 08:50:49;;;;;;;16.20;8.40;;;;;;;-3.53;50.09;95805.03;5111989;28;20023;-74
2023/02/06 08:53:15;;;;;;;38.47;22.80;;;;;;;-3.26;48.91;95807.25;5115600;28;20023;-74
2023/02/06 08:55:40;;;;;;;26.05;10.35;;;;;;;-3.46;49.04;95814.25;5104525;28;20027;-74
2023/02/06 08:58:06;;;;;;;15.20;7.57;;;;;;;-3.47;50.15;95790.56;5081700;28;20476;-74
2023/02/06 09:00:31;;;;;;;13.73;6.97;;;;;;;-3.34;49.00;95819.19;5118358;28;20027;-74
2023/02/06 09:02:57;;;;;;;13.52;5.82;;;;;;;-3.12;48.65;95817.22;5117575;27;20058;-74
2023/02/06 09:05:23;;;;;;;16.75;8.27;;;;;;;-3.50;49.79;95769.44;5119797;27;20035;-74
2023/02/06 09:07:48;;;;;;;11.70;5.85;;;;;;;-3.16;49.76;95813.03;5116067;27;20043;-74
2023/02/06 09:10:14;;;;;;;8.88;5.13;;;;;;;-2.97;49.33;95821.25;5106402;27;20039;-74
2023/02/06 09:12:39;;;;;;;10.48;5.25;;;;;;;-3.04;48.63;95794.22;5107703;27;20069;-74
2023/02/06 09:15:06;;;;;;;28.83;18.67;;;;;;;-2.99;49.22;95798.38;5099662;27;20062;-75
2023/02/06 09:17:31;;;;;;;8.70;5.88;;;;;;;-3.06;48.60;95803.59;5106054;27;20110;-74
2023/02/06 09:19:57;;;;;;;7.60;4.90;;;;;;;-2.87;48.83;95816.84;5117567;27;20488;-74
2023/02/06 09:22:23;;;;;;;17.40;9.23;;;;;;;-2.82;48.21;95795.56;5117436;27;20027;-74
2023/02/06 09:24:48;;;;;;;9.73;5.72;;;;;;;-2.94;50.54;95808.47;5106073;27;20059;-74
2023/02/06 09:27:14;;;;;;;7.68;4.43;;;;;;;-3.15;48.60;95813.00;5122629;27;20559;-73
2023/02/06 09:29:39;;;;;;;6.65;3.88;;;;;;;-3.18;48.84;95809.66;5117772;27;20103;-73
2023/02/06 09:32:05;;;;;;;6.35;3.50;;;;;;;-3.24;48.40;95807.19;5121299;27;20124;-73
2023/02/06 09:34:30;;;;;;;30.95;13.27;;;;;;;-3.30;49.01;95813.22;5120946;27;20034;-73
2023/02/06 09:36:56;;;;;;;14.82;8.52;;;;;;;-3.46;48.65;95801.56;5105457;27;20019;-73
2023/02/06 09:39:22;;;;;;;16.30;9.35;;;;;;;-3.06;48.56;95806.13;5114824;27;20023;-73
2023/02/06 09:41:52;;;;;;;11.25;5.68;;;;;;;-3.22;49.22;95806.31;5111755;27;20031;-73
2023/02/06 09:44:35;;;;;;;7.18;4.47;;;;;;;-3.18;49.13;95795.25;5096137;28;20579;-74
2023/02/06 09:47:17;;;;;;;6.07;4.28;;;;;;;-3.39;49.83;95782.84;5125613;27;20039;-75
2023/02/06 09:50:01;;;;;;;15.88;9.68;;;;;;;-3.24;48.62;95779.25;5133855;27;20027;-77
2023/02/06 09:52:59;;;;;;;11.43;5.22;;;;;;;-3.45;49.91;95796.47;5100342;27;20031;-76
2023/02/06 09:55:41;;;;;;;29.75;16.02;;;;;;;-3.33;49.84;95792.91;5121553;27;20039;-75
2023/02/06 09:58:56;;;;;;;10.80;5.38;;;;;;;-3.43;49.83;95768.47;5113060;28;20081;-76
2023/02/06 10:01:32;;;;;;;8.68;5.38;;;;;;;-3.26;50.01;95776.75;5112768;28;20027;-74
2023/02/06 10:04:28;;;;;;;9.07;5.10;;;;;;;-2.88;48.98;95779.56;5113334;28;20519;-76
2023/02/06 10:07:09;;;;;;;8.82;5.60;;;;;;;-2.81;49.78;95776.94;5112093;28;20091;-73
2023/02/06 10:09:54;;;;;;;8.63;5.20;;;;;;;-2.80;49.29;95765.88;5113795;28;20100;-75
2023/02/06 10:12:35;;;;;;;9.65;5.30;;;;;;;-2.65;50.38;95776.66;5113527;28;20398;-75
2023/02/06 10:15:04;;;;;;;11.20;5.70;;;;;;;-2.57;47.95;95770.59;5112048;28;20033;-74
2023/02/06 10:17:57;;;;;;;6.43;4.53;;;;;;;-2.58;46.93;95770.63;5095186;28;20066;-75
2023/02/06 10:20:36;;;;;;;7.05;4.75;;;;;;;-2.17;46.65;95769.94;5092153;28;20591;-73
2023/02/06 10:23:03;;;;;;;7.78;5.57;;;;;;;-2.44;46.83;95755.13;5112395;28;20044;-77
2023/02/06 10:25:34;;;;;;;8.43;5.80;;;;;;;-2.44;47.31;95750.88;5095275;28;20090;-77
2023/02/06 10:28:26;;;;;;;6.35;4.28;;;;;;;-2.80;48.37;95762.50;5112394;28;20036;-76
2023/02/06 10:31:19;;;;;;;8.55;5.15;;;;;;;-2.44;47.26;95755.97;5113164;28;20032;-77
2023/02/06 10:34:18;;;;;;;8.18;5.07;;;;;;;-2.26;47.46;95758.19;5112197;28;20480;-78
2023/02/06 10:36:59;;;;;;;7.18;4.38;;;;;;;-2.35;46.94;95748.16;5111900;28;20101;-77
2023/02/06 10:39:49;;;;;;;8.50;4.83;;;;;;;-2.07;47.17;95748.50;5111916;28;20039;-76
2023/02/06 10:42:39;;;;;;;8.98;6.70;;;;;;;-1.93;46.30;95755.88;5114243;27;20035;-73
2023/02/06 10:45:27;;;;;;;8.10;5.47;;;;;;;-2.12;46.56;95739.25;5127586;27;20038;-73
2023/02/06 10:48:21;;;;;;;9.30;4.45;;;;;;;-1.95;45.94;95747.44;5114772;27;20046;-73
2023/02/06 10:51:01;;;;;;;9.93;6.10;;;;;;;-1.94;46.23;95750.84;5104756;27;20102;-73
2023/02/06 10:53:32;;;;;;;9.05;4.82;;;;;;;-2.02;45.36;95743.31;5127234;27;20420;-73
2023/02/06 10:55:58;;;;;;;8.30;4.57;;;;;;;-1.85;45.14;95738.75;5092602;28;20031;-74
2023/02/06 10:58:43;;;;;;;10.18;4.88;;;;;;;-1.84;43.71;95737.88;5122879;27;20047;-74
2023/02/06 11:01:10;;;;;;;28.73;13.48;;;;;;;-1.81;44.53;95735.28;5121888;27;20073;-73
2023/02/06 11:03:38;;;;;;;25.08;15.77;;;;;;;-1.96;45.74;95743.19;5103985;27;20032;-73
2023/02/06 11:06:04;;;;;;;11.40;6.00;;;;;;;-2.13;46.08;95742.69;5120420;27;20514;-74
2023/02/06 11:08:42;;;;;;;8.73;5.15;;;;;;;-1.99;46.05;95738.16;5130775;27;20175;-73
2023/02/06 11:11:22;;;;;;;9.25;5.03;;;;;;;-1.75;45.35;95736.03;5115530;27;20023;-73
2023/02/06 11:13:55;;;;;;;8.77;5.20;;;;;;;-2.12;45.48;95732.47;5131786;27;20084;-73
2023/02/06 11:16:25;;;;;;;10.95;7.57;;;;;;;-2.42;46.71;95749.16;5131604;27;20038;-73
2023/02/06 11:18:51;;;;;;;8.45;5.38;;;;;;;-2.41;46.47;95745.72;5114287;27;20034;-73
2023/02/06 11:21:45;;;;;;;7.03;4.18;;;;;;;-2.27;46.33;95753.13;5131363;27;20031;-73
2023/02/06 11:24:12;;;;;;;8.30;4.70;;;;;;;-2.43;45.87;95747.47;5133119;27;20027;-73
2023/02/06 11:26:41;;;;;;;9.45;5.22;;;;;;;-2.29;46.53;95750.59;5130642;27;20041;-74
2023/02/06 11:29:16;;;;;;;10.63;5.80;;;;;;;-2.23;46.68;95754.72;5090822;27;20034;-73
2023/02/06 11:31:49;;;;;;;7.13;4.55;;;;;;;-2.59;46.28;95713.81;5120867;27;20050;-73
2023/02/06 11:34:43;;;;;;;9.27;5.32;;;;;;;-2.38;47.15;95744.84;5121167;27;20084;-73